Time;durP1;ratioP1;P1;durP2;ratioP2;P2;SDS_P1;SDS_P2;PMS_P1;PMS_P2;Temp;Humidity;BMP_temperature;BMP_pressure;BME280_temperature;BME280_humidity;BME280_pressure;Samples;Min_cycle;Max_cycle;Signal;HPM_P1;HPM_P2
2021/08/07 00:02:09;;;;;;;6.87;3.13;;;15.90;99.90;;;;;;4406568;32;20147;-63
2021/08/07 00:04:36;;;;;;;6.00;2.90;;;15.90;99.90;;;;;;4406183;32;20148;-62
2021/08/07 00:07:03;;;;;;;7.43;3.00;;;15.90;99.90;;;;;;4406136;32;20575;-61
2021/08/07 00:09:30;;;;;;;4.83;2.87;;;15.90;99.90;;;;;;4406020;32;20179;-60
2021/08/07 00:11:56;;;;;;;5.10;2.90;;;15.80;99.90;;;;;;4406123;32;20170;-61
2021/08/07 00:14:23;;;;;;;7.30;3.17;;;15.80;99.90;;;;;;4407070;32;20152;-62
2021/08/07 00:16:50;;;;;;;4.20;2.80;;;15.80;99.90;;;;;;4405541;32;20178;-61
2021/08/07 00:19:18;;;;;;;7.37;2.63;;;15.70;99.90;;;;;;4405669;32;20166;-62
2021/08/07 00:21:45;;;;;;;5.57;2.50;;;15.80;99.90;;;;;;4407519;32;20475;-62
2021/08/07 00:24:12;;;;;;;3.27;2.40;;;15.70;99.90;;;;;;4406544;32;20148;-62
2021/08/07 00:26:39;;;;;;;6.73;2.70;;;15.70;99.90;;;;;;4405858;32;20520;-61
2021/08/07 00:29:05;;;;;;;4.47;2.40;;;15.70;99.90;;;;;;4405365;32;20245;-61
2021/08/07 00:31:32;;;;;;;6.00;2.67;;;15.70;99.90;;;;;;4406229;32;20159;-61
2021/08/07 00:33:59;;;;;;;5.47;2.67;;;15.70;99.90;;;;;;4405650;32;20238;-61
2021/08/07 00:36:27;;;;;;;9.70;3.27;;;15.70;99.90;;;;;;4405663;32;20155;-61
2021/08/07 00:38:54;;;;;;;7.30;2.50;;;15.80;99.90;;;;;;4405400;32;20182;-61
2021/08/07 00:41:21;;;;;;;8.00;2.63;;;15.80;99.90;;;;;;4405621;32;20200;-62
2021/08/07 00:43:48;;;;;;;4.63;2.43;;;15.80;99.90;;;;;;4406287;32;20174;-61
2021/08/07 00:46:15;;;;;;;6.53;2.37;;;15.80;99.90;;;;;;4405687;32;20151;-62
2021/08/07 00:48:42;;;;;;;5.47;3.07;;;15.80;99.90;;;;;;4406841;32;20167;-62
2021/08/07 00:51:09;;;;;;;9.63;3.00;;;15.90;99.90;;;;;;4405602;32;20162;-62
2021/08/07 00:53:37;;;;;;;7.27;2.80;;;15.90;99.90;;;;;;4405631;32;20144;-62
2021/08/07 00:56:05;;;;;;;10.87;3.83;;;15.90;99.90;;;;;;4405712;32;20147;-61
2021/08/07 00:58:32;;;;;;;6.87;3.07;;;15.90;99.90;;;;;;4405593;32;20159;-62
2021/08/07 01:01:02;;;;;;;5.20;3.03;;;15.90;99.90;;;;;;4406363;32;20186;-62
2021/08/07 01:03:34;;;;;;;6.20;2.77;;;15.90;99.90;;;;;;4406738;32;20191;-61
2021/08/07 01:06:11;;;;;;;4.97;2.93;;;16.00;99.90;;;;;;4405551;32;20470;-61
2021/08/07 01:08:44;;;;;;;5.57;3.00;;;16.00;99.90;;;;;;4407133;32;20199;-61
2021/08/07 01:11:19;;;;;;;8.40;3.80;;;16.00;99.90;;;;;;4406221;32;20460;-61
2021/08/07 01:13:49;;;;;;;8.17;3.07;;;16.00;99.90;;;;;;4405355;32;20509;-61
2021/08/07 01:16:22;;;;;;;9.40;3.57;;;16.10;99.90;;;;;;4405462;32;20234;-63
2021/08/07 01:18:51;;;;;;;6.87;2.93;;;16.00;99.90;;;;;;4405275;32;20148;-62
2021/08/07 01:21:23;;;;;;;7.00;2.90;;;16.10;99.90;;;;;;4405429;32;20475;-61
2021/08/07 01:23:57;;;;;;;7.97;3.43;;;16.00;99.90;;;;;;4405591;32;20187;-61
2021/08/07 01:26:32;;;;;;;8.17;2.70;;;15.80;99.90;;;;;;4405444;32;20556;-63
2021/08/07 01:29:01;;;;;;;7.83;3.20;;;15.80;99.90;;;;;;4405279;32;20159;-61
2021/08/07 01:31:32;;;;;;;12.00;3.20;;;15.60;99.90;;;;;;4405232;32;20156;-65
2021/08/07 01:33:59;;;;;;;9.93;2.87;;;15.70;99.90;;;;;;4405261;32;20545;-62
2021/08/07 01:36:27;;;;;;;10.30;3.13;;;15.60;99.90;;;;;;4405250;32;20168;-62
2021/08/07 01:38:54;;;;;;;10.60;3.03;;;15.50;99.90;;;;;;4405311;32;20168;-61
2021/08/07 01:41:22;;;;;;;15.27;4.37;;;15.50;99.90;;;;;;4405266;32;20263;-61
2021/08/07 01:43:51;;;;;;;11.17;3.33;;;15.40;99.90;;;;;;4405542;32;20164;-62
2021/08/07 01:46:20;;;;;;;9.87;2.70;;;15.30;99.90;;;;;;4405286;32;20530;-62
2021/08/07 01:48:55;;;;;;;8.90;3.23;;;15.30;99.90;;;;;;4405133;32;20171;-63
2021/08/07 01:51:26;;;;;;;8.73;2.90;;;15.30;99.90;;;;;;4407728;32;20166;-61
2021/08/07 01:53:55;;;;;;;12.23;3.20;;;15.30;99.90;;;;;;4408071;32;20171;-61
2021/08/07 01:56:28;;;;;;;10.83;3.73;;;15.30;99.90;;;;;;4407830;32;20207;-61
2021/08/07 01:59:00;;;;;;;10.87;3.50;;;15.20;99.90;;;;;;4407932;32;20164;-62
2021/08/07 02:01:30;;;;;;;9.07;3.63;;;15.20;99.90;;;;;;4407929;32;20148;-62
2021/08/07 02:04:00;;;;;;;8.40;3.43;;;15.20;99.90;;;;;;4407932;32;20212;-61
2021/08/07 02:06:27;;;;;;;7.70;3.60;;;15.20;99.90;;;;;;4412244;32;20223;-61
2021/08/07 02:08:55;;;;;;;13.70;4.53;;;15.20;99.90;;;;;;4414130;32;20171;-61
2021/08/07 02:11:22;;;;;;;9.27;3.77;;;15.10;99.90;;;;;;4411009;32;20183;-61
2021/08/07 02:13:49;;;;;;;14.00;3.77;;;15.10;99.90;;;;;;4408013;32;20148;-62
2021/08/07 02:16:18;;;;;;;10.80;3.77;;;15.10;99.90;;;;;;4409234;32;20215;-61
2021/08/07 02:18:47;;;;;;;9.83;3.87;;;15.10;99.90;;;;;;4407734;32;20214;-62
2021/08/07 02:21:16;;;;;;;8.97;3.60;;;15.00;99.90;;;;;;4407477;32;20163;-62
2021/08/07 02:23:47;;;;;;;7.60;4.20;;;15.00;99.90;;;;;;4407584;32;20160;-61
2021/08/07 02:26:16;;;;;;;10.90;4.20;;;15.00;99.90;;;;;;4407647;32;20193;-62
2021/08/07 02:28:43;;;;;;;9.23;3.80;;;15.00;99.90;;;;;;4407234;32;20191;-62
2021/08/07 02:31:11;;;;;;;9.63;3.63;;;15.00;99.90;;;;;;4407630;32;20187;-61
2021/08/07 02:33:38;;;;;;;9.37;3.87;;;15.00;99.90;;;;;;4409116;32;20164;-61
2021/08/07 02:36:10;;;;;;;6.37;3.53;;;15.00;99.90;;;;;;4407656;32;20178;-60
2021/08/07 02:38:37;;;;;;;12.67;5.30;;;15.00;99.90;;;;;;4408197;32;20620;-61
2021/08/07 02:41:04;;;;;;;8.17;3.60;;;14.90;99.90;;;;;;4407506;32;20147;-61
2021/08/07 02:43:32;;;;;;;13.80;4.97;;;14.90;99.90;;;;;;4409131;32;20199;-60
2021/08/07 02:45:59;;;;;;;10.57;4.87;;;14.90;99.90;;;;;;4407915;32;20171;-60
2021/08/07 02:48:27;;;;;;;11.73;4.00;;;14.90;99.90;;;;;;4407346;32;20197;-63
2021/08/07 02:50:55;;;;;;;11.17;4.63;;;14.80;99.90;;;;;;4407382;32;20178;-63
2021/08/07 02:53:24;;;;;;;8.73;4.40;;;14.90;99.90;;;;;;4407273;32;20166;-62
2021/08/07 02:55:52;;;;;;;8.83;3.90;;;14.80;99.90;;;;;;4408576;32;20163;-60
2021/08/07 02:58:19;;;;;;;7.57;4.10;;;14.90;99.90;;;;;;4407196;32;20170;-59
2021/08/07 03:00:46;;;;;;;11.63;4.37;;;14.80;99.90;;;;;;4407046;32;20152;-62
2021/08/07 03:03:13;;;;;;;8.83;4.80;;;14.80;99.90;;;;;;4406578;32;20152;-61
2021/08/07 03:05:42;;;;;;;8.47;4.37;;;14.80;99.90;;;;;;4407156;32;20140;-62
2021/08/07 03:08:09;;;;;;;10.70;4.13;;;14.80;99.90;;;;;;4407098;32;20560;-61
2021/08/07 03:10:37;;;;;;;10.40;4.70;;;14.80;99.90;;;;;;4408598;32;20552;-62
2021/08/07 03:13:04;;;;;;;8.73;4.47;;;14.80;99.90;;;;;;4406948;32;20182;-61
2021/08/07 03:15:33;;;;;;;15.07;4.77;;;14.80;99.90;;;;;;4407259;32;20205;-62
2021/08/07 03:18:00;;;;;;;12.93;4.53;;;14.90;99.90;;;;;;4408001;32;20163;-61
2021/08/07 03:20:31;;;;;;;7.77;4.77;;;14.90;99.90;;;;;;4408453;32;20143;-62
2021/08/07 03:22:59;;;;;;;10.20;4.67;;;14.90;99.90;;;;;;4406851;32;20175;-61
2021/08/07 03:25:26;;;;;;;13.80;5.37;;;15.00;99.90;;;;;;4406713;32;20568;-61
2021/08/07 03:27:54;;;;;;;9.97;5.37;;;14.90;99.90;;;;;;4406653;32;20166;-61
2021/08/07 03:30:21;;;;;;;8.60;5.13;;;14.90;99.90;;;;;;4406100;32;20534;-62
2021/08/07 03:32:48;;;;;;;9.90;5.27;;;14.90;99.90;;;;;;4406367;32;20152;-61
2021/08/07 03:35:15;;;;;;;10.17;5.20;;;14.80;99.90;;;;;;4407516;32;20151;-61
2021/08/07 03:37:42;;;;;;;11.13;5.13;;;14.90;99.90;;;;;;4407211;32;20528;-61
2021/08/07 03:40:10;;;;;;;10.93;5.03;;;15.00;99.90;;;;;;4407522;32;20223;-61
2021/08/07 03:42:38;;;;;;;12.27;5.00;;;15.00;99.90;;;;;;4406841;32;20164;-61
2021/08/07 03:45:07;;;;;;;10.73;4.60;;;15.10;99.90;;;;;;4406335;32;20144;-61
2021/08/07 03:47:48;;;;;;;11.57;5.80;;;15.00;99.90;;;;;;4406352;32;20222;-60
2021/08/07 03:50:15;;;;;;;9.40;5.10;;;15.20;99.90;;;;;;4407464;32;20171;-62
2021/08/07 03:52:42;;;;;;;12.20;5.03;;;15.20;99.90;;;;;;4407420;32;20508;-61
2021/08/07 03:55:10;;;;;;;11.13;5.13;;;15.30;99.90;;;;;;4406294;32;20147;-60
2021/08/07 03:57:47;;;;;;;8.77;5.00;;;15.30;99.90;;;;;;4406713;32;20175;-62
2021/08/07 04:00:17;;;;;;;7.37;5.27;;;15.40;99.90;;;;;;4406152;32;20211;-62
2021/08/07 04:02:44;;;;;;;12.60;5.23;;;15.40;99.90;;;;;;4406042;32;20144;-62
2021/08/07 04:05:11;;;;;;;6.23;4.40;;;15.50;99.90;;;;;;4406410;32;20196;-61
2021/08/07 04:07:38;;;;;;;7.93;4.40;;;15.50;99.90;;;;;;4406076;32;20166;-62
2021/08/07 04:10:06;;;;;;;11.50;5.00;;;15.50;99.90;;;;;;4405989;32;20166;-62
2021/08/07 04:12:32;;;;;;;9.90;4.93;;;15.60;99.90;;;;;;4406085;32;20167;-61
2021/08/07 04:14:59;;;;;;;11.07;4.93;;;15.60;99.90;;;;;;4406372;32;20167;-62
2021/08/07 04:17:29;;;;;;;12.67;6.07;;;15.70;99.90;;;;;;4406357;32;20144;-63
2021/08/07 04:19:56;;;;;;;10.90;4.37;;;15.70;99.90;;;;;;4406361;32;20152;-62
2021/08/07 04:22:23;;;;;;;7.87;4.50;;;15.70;99.90;;;;;;4406667;32;20593;-62
2021/08/07 04:24:50;;;;;;;9.00;4.83;;;15.70;99.90;;;;;;4405703;32;20164;-61
2021/08/07 04:27:17;;;;;;;7.87;4.20;;;15.70;99.90;;;;;;4405803;32;20197;-62
2021/08/07 04:29:44;;;;;;;10.00;4.10;;;15.80;99.90;;;;;;4405659;32;20171;-61
2021/08/07 04:32:11;;;;;;;7.10;3.90;;;15.80;99.90;;;;;;4406669;32;20167;-62
2021/08/07 04:34:39;;;;;;;7.57;3.67;;;15.80;99.90;;;;;;4402801;32;20230;-61
2021/08/07 04:37:33;;;;;;;11.73;4.57;;;15.80;99.90;;;;;;4397679;32;20486;-62
2021/08/07 04:40:00;;;;;;;10.23;4.77;;;15.70;99.90;;;;;;4397754;32;20209;-62
2021/08/07 04:43:01;;;;;;;10.53;4.20;;;15.70;99.90;;;;;;4399264;32;20181;-61
2021/08/07 04:45:28;;;;;;;8.83;4.00;;;15.60;99.90;;;;;;4400387;32;20158;-61
2021/08/07 04:47:57;;;;;;;9.87;5.73;;;15.50;99.90;;;;;;4399580;32;20198;-60
2021/08/07 04:50:30;;;;;;;11.60;5.10;;;15.50;99.90;;;;;;4397879;32;20674;-60
2021/08/07 04:53:06;;;;;;;10.87;5.27;;;15.40;99.90;;;;;;4395803;32;22048;-59
2021/08/07 04:55:34;;;;;;;11.77;4.87;;;15.40;99.90;;;;;;4412937;32;20206;-61
2021/08/07 04:58:03;;;;;;;12.33;4.77;;;15.30;99.90;;;;;;4407971;32;20339;-62
2021/08/07 05:00:31;;;;;;;11.27;4.73;;;15.20;99.90;;;;;;4410803;32;20203;-62
2021/08/07 05:02:59;;;;;;;11.00;4.60;;;15.20;99.90;;;;;;4405575;32;20171;-61
2021/08/07 05:05:27;;;;;;;14.37;5.73;;;15.20;99.90;;;;;;4405510;32;20171;-61
2021/08/07 05:07:54;;;;;;;9.63;4.37;;;15.20;99.90;;;;;;4414637;32;20167;-61
2021/08/07 05:10:20;;;;;;;8.20;4.53;;;15.20;99.90;;;;;;4420483;32;20155;-61
2021/08/07 05:12:47;;;;;;;10.30;4.73;;;15.20;99.90;;;;;;4421538;32;20571;-62
2021/08/07 05:15:14;;;;;;;9.60;4.07;;;15.10;99.90;;;;;;4421980;32;20181;-62
2021/08/07 05:17:41;;;;;;;13.10;5.50;;;15.10;99.90;;;;;;4422455;32;20144;-62
2021/08/07 05:20:08;;;;;;;10.23;4.60;;;15.10;99.90;;;;;;4420672;32;20174;-61
2021/08/07 05:22:39;;;;;;;8.67;4.50;;;15.20;99.90;;;;;;4421702;32;20520;-63
2021/08/07 05:25:07;;;;;;;12.80;4.13;;;15.30;99.90;;;;;;4422099;32;20165;-62
2021/08/07 05:27:34;;;;;;;9.53;4.67;;;15.40;99.90;;;;;;4423789;32;20512;-62
2021/08/07 05:30:01;;;;;;;6.87;3.80;;;16.00;99.90;;;;;;4424100;32;20557;-60
2021/08/07 05:32:30;;;;;;;11.13;4.03;;;16.20;99.90;;;;;;4423554;32;20215;-63
2021/08/07 05:34:57;;;;;;;9.37;4.27;;;16.20;99.90;;;;;;4424306;32;20171;-62
2021/08/07 05:37:24;;;;;;;4.97;3.30;;;16.20;99.90;;;;;;4424563;32;20147;-62
2021/08/07 05:39:52;;;;;;;6.63;3.30;;;17.20;99.90;;;;;;4423518;32;20182;-63
2021/08/07 05:42:19;;;;;;;11.30;3.67;;;17.50;99.90;;;;;;4423506;32;20166;-63
2021/08/07 05:44:46;;;;;;;10.17;2.73;;;17.10;99.90;;;;;;4423324;32;20147;-61
2021/08/07 05:47:13;;;;;;;7.10;3.30;;;16.70;99.90;;;;;;4423544;32;20206;-63
2021/08/07 05:49:40;;;;;;;9.37;3.57;;;16.50;99.90;;;;;;4423430;32;20163;-62
2021/08/07 05:52:06;;;;;;;11.77;3.30;;;16.40;99.90;;;;;;4423219;32;20247;-62
2021/08/07 05:54:33;;;;;;;6.43;3.20;;;16.40;99.90;;;;;;4424055;32;20563;-62
2021/08/07 05:57:02;;;;;;;5.60;2.77;;;16.30;99.90;;;;;;4423606;32;20541;-62
2021/08/07 05:59:28;;;;;;;6.53;2.87;;;16.30;99.90;;;;;;4423941;32;20538;-64
2021/08/07 06:01:55;;;;;;;5.30;2.80;;;16.30;99.90;;;;;;4423227;32;20207;-62
2021/08/07 06:04:22;;;;;;;4.37;2.50;;;16.30;99.90;;;;;;4423080;32;20207;-62
2021/08/07 06:06:49;;;;;;;9.03;2.77;;;16.50;99.90;;;;;;4424725;32;20175;-60
2021/08/07 06:09:16;;;;;;;6.63;2.93;;;16.40;99.90;;;;;;4423035;32;20152;-62
2021/08/07 06:11:43;;;;;;;5.63;2.33;;;16.40;99.90;;;;;;4423637;32;20613;-60
2021/08/07 06:14:11;;;;;;;9.07;2.90;;;16.40;99.90;;;;;;4423042;32;20214;-60
2021/08/07 06:16:38;;;;;;;9.20;2.83;;;16.40;99.90;;;;;;4423607;32;20148;-60
2021/08/07 06:19:04;;;;;;;6.70;3.03;;;16.40;99.90;;;;;;4423025;32;20163;-60
2021/08/07 06:21:31;;;;;;;4.87;2.47;;;16.40;99.90;;;;;;4422813;32;20148;-61
2021/08/07 06:23:59;;;;;;;6.87;2.40;;;16.50;99.90;;;;;;4424153;32;20630;-61
2021/08/07 06:26:26;;;;;;;8.17;3.20;;;16.60;99.90;;;;;;4422651;32;20152;-62
2021/08/07 06:28:53;;;;;;;3.97;2.10;;;16.70;99.90;;;;;;4422762;32;20181;-62
2021/08/07 06:31:22;;;;;;;9.00;2.70;;;16.70;99.90;;;;;;4424074;32;20484;-61
2021/08/07 06:33:49;;;;;;;6.03;2.00;;;16.80;99.90;;;;;;4423565;32;20174;-62
2021/08/07 06:36:16;;;;;;;9.87;3.23;;;16.90;99.90;;;;;;4423174;32;20486;-61
2021/08/07 06:38:44;;;;;;;11.03;2.17;;;17.10;99.90;;;;;;4423679;32;20183;-62
2021/08/07 06:41:11;;;;;;;7.27;2.37;;;17.10;99.90;;;;;;4422823;32;20215;-61
2021/08/07 06:43:38;;;;;;;6.70;2.30;;;17.10;99.90;;;;;;4422622;32;20203;-62
2021/08/07 06:46:05;;;;;;;4.13;2.13;;;17.10;99.90;;;;;;4422564;32;20186;-61
2021/08/07 06:48:33;;;;;;;5.53;2.47;;;17.30;99.90;;;;;;4422585;32;20555;-62
2021/08/07 06:51:00;;;;;;;8.27;1.93;;;17.50;99.90;;;;;;4422317;32;20155;-61
2021/08/07 06:53:27;;;;;;;6.67;2.30;;;17.90;99.90;;;;;;4422503;32;20147;-61
2021/08/07 06:55:54;;;;;;;7.93;2.30;;;18.40;99.90;;;;;;4423322;32;20207;-62
2021/08/07 06:58:21;;;;;;;4.20;1.97;;;18.70;99.90;;;;;;4423018;32;20205;-62
2021/08/07 07:00:47;;;;;;;6.63;2.37;;;19.10;99.90;;;;;;4422382;32;20159;-62
2021/08/07 07:03:14;;;;;;;6.40;2.00;;;19.50;99.90;;;;;;4422224;32;20173;-60
2021/08/07 07:05:42;;;;;;;5.83;2.07;;;19.90;99.90;;;;;;4422616;32;20571;-63
2021/08/07 07:08:09;;;;;;;5.73;2.10;;;20.20;99.90;;;;;;4422599;32;20163;-62
2021/08/07 07:10:38;;;;;;;6.30;2.13;;;20.50;99.90;;;;;;4422128;32;20163;-61
2021/08/07 07:13:06;;;;;;;7.33;2.07;;;20.70;99.90;;;;;;4423308;32;20175;-61
2021/08/07 07:15:33;;;;;;;5.13;1.80;;;21.00;99.90;;;;;;4421938;32;20174;-63
2021/08/07 07:17:59;;;;;;;3.73;1.57;;;21.10;99.90;;;;;;4422220;32;20162;-62
2021/08/07 07:20:30;;;;;;;2.37;1.40;;;20.90;99.90;;;;;;4422317;32;20164;-62
2021/08/07 07:22:58;;;;;;;4.97;1.63;;;20.70;99.90;;;;;;4421892;32;20567;-63
2021/08/07 07:25:25;;;;;;;4.87;1.50;;;20.30;99.90;;;;;;4422525;32;20239;-61
2021/08/07 07:27:52;;;;;;;3.70;1.40;;;20.20;99.90;;;;;;4422311;32;20166;-63
2021/08/07 07:30:19;;;;;;;4.50;1.63;;;20.10;99.90;;;;;;4421228;32;20222;-64
2021/08/07 07:32:46;;;;;;;3.73;1.47;;;20.30;99.90;;;;;;4422276;32;20155;-61
2021/08/07 07:35:13;;;;;;;3.07;1.30;;;20.90;99.90;;;;;;4421780;32;20571;-64
2021/08/07 07:37:40;;;;;;;4.73;1.40;;;21.30;99.90;;;;;;4422925;32;20152;-63
2021/08/07 07:40:10;;;;;;;5.73;1.30;;;21.50;99.90;;;;;;4421785;32;20166;-62
2021/08/07 07:42:37;;;;;;;3.17;1.20;;;21.70;99.90;;;;;;4421674;32;20631;-63
2021/08/07 07:45:04;;;;;;;3.67;1.40;;;21.80;99.90;;;;;;4421392;32;20580;-61
2021/08/07 07:47:31;;;;;;;3.87;1.40;;;21.80;99.90;;;;;;4421579;32;20543;-64
2021/08/07 07:49:58;;;;;;;3.87;1.30;;;21.60;99.90;;;;;;4422038;32;20170;-63
2021/08/07 07:52:25;;;;;;;6.07;1.50;;;21.30;99.90;;;;;;4421545;32;20218;-61
2021/08/07 07:54:52;;;;;;;6.67;1.60;;;21.00;99.90;;;;;;4421487;32;20148;-62
2021/08/07 07:57:21;;;;;;;3.93;1.67;;;20.70;99.90;;;;;;4421313;32;20163;-61
2021/08/07 07:59:48;;;;;;;7.10;1.50;;;20.40;99.90;;;;;;4421347;32;20144;-62
2021/08/07 08:02:15;;;;;;;4.43;1.27;;;20.30;99.90;;;;;;4421406;32;20196;-62
2021/08/07 08:04:42;;;;;;;4.67;1.83;;;20.30;99.90;;;;;;4421339;32;20189;-62
2021/08/07 08:07:09;;;;;;;4.13;1.40;;;20.30;99.90;;;;;;4422995;32;20143;-64
2021/08/07 08:09:36;;;;;;;4.40;1.50;;;20.60;99.90;;;;;;4422579;32;20160;-63
2021/08/07 08:12:04;;;;;;;6.47;2.23;;;21.00;99.90;;;;;;4421641;32;20170;-64
2021/08/07 08:14:33;;;;;;;7.57;1.67;;;21.30;99.90;;;;;;4421293;32;20143;-63
2021/08/07 08:17:00;;;;;;;2.23;1.20;;;21.30;99.90;;;;;;4422995;32;20144;-62
2021/08/07 08:19:27;;;;;;;4.47;1.20;;;20.90;99.90;;;;;;4421197;32;20178;-63
2021/08/07 08:21:54;;;;;;;6.00;1.67;;;20.50;99.90;;;;;;4420984;32;20177;-63
2021/08/07 08:24:20;;;;;;;5.47;2.50;;;20.10;99.90;;;;;;4421020;32;20178;-61
2021/08/07 08:26:47;;;;;;;4.23;2.10;;;20.00;99.90;;;;;;4420759;32;20189;-62
2021/08/07 08:29:14;;;;;;;5.47;1.70;;;22.10;99.90;;;;;;4420864;32;20548;-64
2021/08/07 08:31:42;;;;;;;4.47;1.63;;;25.60;99.90;;;;;;4422723;32;20610;-63
2021/08/07 08:34:09;;;;;;;4.60;1.33;;;31.30;92.50;;;;;;4420949;32;20147;-64
2021/08/07 08:36:36;;;;;;;3.72;1.30;;;36.90;73.00;;;;;;4422554;32;20589;-61
2021/08/07 08:39:03;;;;;;;4.22;1.20;;;40.20;55.60;;;;;;4420792;32;20147;-61
2021/08/07 08:41:35;;;;;;;4.03;1.15;;;39.00;52.00;;;;;;4420801;32;20593;-60
2021/08/07 08:44:01;;;;;;;3.97;1.35;;;35.70;51.60;;;;;;4420762;32;20174;-61
2021/08/07 08:46:30;;;;;;;3.17;1.17;;;31.80;57.40;;;;;;4420875;32;20152;-61
2021/08/07 08:49:01;;;;;;;4.60;1.20;;;29.70;63.30;;;;;;4420882;32;20155;-61
2021/08/07 08:51:30;;;;;;;3.60;1.10;;;28.80;68.50;;;;;;4421616;32;20163;-63
2021/08/07 08:53:57;;;;;;;3.33;1.10;;;31.60;72.00;;;;;;4420753;32;20186;-63
2021/08/07 08:56:24;;;;;;;3.17;1.15;;;35.70;56.30;;;;;;4421737;32;20227;-63
2021/08/07 08:58:51;;;;;;;3.20;1.00;;;33.80;55.50;;;;;;4421571;32;20222;-63
2021/08/07 09:01:21;;;;;;;3.75;1.20;;;31.40;58.90;;;;;;4420274;32;20142;-62
2021/08/07 09:03:48;;;;;;;5.62;1.45;;;29.00;63.40;;;;;;4420828;32;20197;-62
2021/08/07 09:06:16;;;;;;;4.37;1.52;;;28.10;67.10;;;;;;4421739;32;20495;-62
2021/08/07 09:09:08;;;;;;;3.20;1.35;;;29.30;67.90;;;;;;4420782;32;20147;-62
2021/08/07 09:11:35;;;;;;;3.85;1.10;;;31.20;64.20;;;;;;4358784;33;20184;-62
2021/08/07 09:14:23;;;;;;;2.20;0.90;;;33.00;62.20;;;;;;4358673;33;20506;-63
2021/08/07 09:17:21;;;;;;;5.20;1.40;;;35.30;56.40;;;;;;4358216;33;20160;-63
2021/08/07 09:19:50;;;;;;;1.83;0.88;;;36.10;56.10;;;;;;4358799;33;20652;-63
2021/08/07 09:22:20;;;;;;;2.92;1.10;;;41.00;51.40;;;;;;4358048;33;20211;-63
2021/08/07 09:25:02;;;;;;;2.53;1.12;;;44.10;44.20;;;;;;4358245;33;20161;-62
2021/08/07 09:27:31;;;;;;;1.37;1.10;;;45.50;40.90;;;;;;4359380;33;20189;-63
2021/08/07 09:29:59;;;;;;;2.62;1.10;;;45.90;39.30;;;;;;4357968;33;20172;-62
2021/08/07 09:32:26;;;;;;;3.08;1.27;;;43.40;39.90;;;;;;4358010;33;20262;-62
2021/08/07 09:35:07;;;;;;;5.78;1.25;;;41.10;41.50;;;;;;4358252;33;20216;-61
2021/08/07 09:37:36;;;;;;;2.87;1.10;;;36.50;45.60;;;;;;4358429;33;20165;-61
2021/08/07 09:40:05;;;;;;;1.70;0.95;;;33.00;48.70;;;;;;4358014;33;20232;-63
2021/08/07 09:42:32;;;;;;;2.75;1.20;;;30.70;54.00;;;;;;4358079;33;20695;-61
2021/08/07 09:45:04;;;;;;;3.65;1.40;;;29.20;57.20;;;;;;4358137;33;20157;-61
2021/08/07 09:47:32;;;;;;;2.22;1.15;;;27.70;60.70;;;;;;4363016;32;20152;-63
2021/08/07 09:50:01;;;;;;;4.18;1.40;;;26.20;65.20;;;;;;4420715;32;20184;-63
2021/08/07 09:52:38;;;;;;;5.57;1.45;;;25.10;71.00;;;;;;4420241;32;20164;-64
2021/08/07 09:55:05;;;;;;;5.57;1.50;;;24.40;76.60;;;;;;4421504;32;20147;-64
2021/08/07 09:57:32;;;;;;;4.68;1.67;;;24.60;80.40;;;;;;4421137;32;20159;-63
2021/08/07 09:59:59;;;;;;;5.78;1.50;;;24.80;83.40;;;;;;4421168;32;20169;-63
2021/08/07 10:02:31;;;;;;;10.18;1.80;;;24.80;85.40;;;;;;4420415;32;20153;-63
2021/08/07 10:04:59;;;;;;;3.85;1.50;;;25.00;85.30;;;;;;4420854;32;20155;-64
2021/08/07 10:07:26;;;;;;;5.20;1.60;;;25.20;82.50;;;;;;4420330;32;20151;-65
2021/08/07 10:09:55;;;;;;;4.22;1.37;;;24.70;84.50;;;;;;4420276;32;20151;-62
2021/08/07 10:12:22;;;;;;;6.45;1.50;;;24.60;87.50;;;;;;4421737;32;20143;-64
2021/08/07 10:14:51;;;;;;;4.57;1.50;;;24.50;87.40;;;;;;4424745;32;20475;-63
2021/08/07 10:17:19;;;;;;;6.72;1.48;;;24.00;86.80;;;;;;4423015;32;20179;-63
2021/08/07 10:19:48;;;;;;;5.50;1.70;;;23.20;90.00;;;;;;4422865;32;20174;-63
2021/08/07 10:22:17;;;;;;;3.37;1.70;;;22.60;91.90;;;;;;4414166;32;20160;-63
2021/08/07 10:24:47;;;;;;;3.83;1.70;;;22.10;94.60;;;;;;4421637;32;20178;-63
2021/08/07 10:27:18;;;;;;;9.63;2.80;;;21.00;99.90;;;;;;4422805;32;20156;-63
2021/08/07 10:29:48;;;;;;;7.13;3.33;;;19.60;99.90;;;;;;4422558;32;20208;-62
2021/08/07 10:32:16;;;;;;;2.77;1.43;;;18.60;99.90;;;;;;4423816;32;20205;-62
2021/08/07 10:34:47;;;;;;;3.13;1.70;;;17.90;99.90;;;;;;4422523;32;20208;-63
2021/08/07 10:37:15;;;;;;;2.93;1.90;;;17.40;99.90;;;;;;4422899;32;20535;-62
2021/08/07 10:39:42;;;;;;;3.07;2.43;;;17.70;99.90;;;;;;4422557;32;20163;-62
2021/08/07 10:42:11;;;;;;;5.63;2.47;;;18.20;99.90;;;;;;4423366;32;20605;-64
2021/08/07 10:44:42;;;;;;;4.40;2.43;;;19.20;99.90;;;;;;4423391;32;20143;-62
2021/08/07 10:47:09;;;;;;;4.60;2.60;;;20.20;99.90;;;;;;4422389;32;20170;-63
2021/08/07 10:49:38;;;;;;;4.83;2.57;;;21.00;99.90;;;;;;4422571;32;20151;-61
2021/08/07 10:52:37;;;;;;;5.60;2.30;;;21.50;99.90;;;;;;4417821;32;20214;-62
2021/08/07 10:55:51;;;;;;;7.63;2.67;;;21.80;99.90;;;;;;4399074;32;21497;-63
2021/08/07 10:58:58;;;;;;;4.33;2.40;;;21.50;99.90;;;;;;4349144;32;20329;-63
2021/08/07 11:01:34;;;;;;;6.33;3.27;;;21.20;99.90;;;;;;4300775;33;20253;-64
2021/08/07 11:04:11;;;;;;;3.87;2.93;;;21.00;99.90;;;;;;4346076;32;20215;-62
2021/08/07 11:06:59;;;;;;;4.93;3.20;;;20.90;99.90;;;;;;4352886;32;21467;-63
2021/08/07 11:09:32;;;;;;;9.73;3.63;;;20.60;99.90;;;;;;4349000;32;20179;-62
2021/08/07 11:12:21;;;;;;;8.30;3.13;;;20.70;99.90;;;;;;4352622;32;20291;-63
2021/08/07 11:14:50;;;;;;;5.53;3.53;;;21.00;99.90;;;;;;4365174;32;20198;-64
2021/08/07 11:17:35;;;;;;;5.20;2.87;;;21.40;99.90;;;;;;4368750;32;20192;-63
2021/08/07 11:20:05;;;;;;;4.80;2.57;;;21.60;99.90;;;;;;4374484;32;20170;-63
2021/08/07 11:23:09;;;;;;;6.00;2.90;;;21.30;99.90;;;;;;4373915;32;20307;-63
2021/08/07 11:28:30;;;;;;;6.87;2.50;;;21.40;99.90;;;;;;4334663;32;2080673;-62
2021/08/07 11:31:27;;;;;;;4.83;2.47;;;21.40;99.90;;;;;;4406561;32;20170;-63
2021/08/07 11:34:22;;;;;;;4.37;2.53;;;21.10;99.90;;;;;;4407358;32;20503;-63
2021/08/07 11:37:13;;;;;;;11.03;2.63;;;21.30;99.90;;;;;;4406730;32;20186;-64
2021/08/07 11:40:22;;;;;;;12.17;2.30;;;21.20;99.90;;;;;;4406650;32;20178;-63
2021/08/07 11:42:51;;;;;;;6.57;2.17;;;21.50;99.90;;;;;;4344688;33;20634;-63
2021/08/07 11:45:22;;;;;;;8.23;1.90;;;21.70;99.90;;;;;;4345384;33;20161;-62
2021/08/07 11:47:52;;;;;;;6.87;1.90;;;21.80;99.90;;;;;;4345712;33;20634;-63
2021/08/07 11:50:21;;;;;;;5.00;2.10;;;21.70;99.90;;;;;;4344630;33;20258;-63
2021/08/07 11:52:48;;;;;;;3.80;1.53;;;21.60;99.90;;;;;;4344575;33;20212;-63
2021/08/07 11:55:15;;;;;;;6.73;1.90;;;21.60;99.90;;;;;;4344241;33;20191;-64
2021/08/07 11:57:42;;;;;;;4.30;2.00;;;21.50;99.90;;;;;;4344897;33;20160;-64
2021/08/07 12:00:25;;;;;;;4.37;1.97;;;21.60;99.90;;;;;;4345633;33;20169;-62
2021/08/07 12:03:10;;;;;;;4.20;1.70;;;21.70;99.90;;;;;;4344144;33;20183;-64
2021/08/07 12:05:49;;;;;;;6.77;1.90;;;21.80;99.90;;;;;;4338900;33;20256;-64
2021/08/07 12:08:16;;;;;;;2.57;1.17;;;21.70;99.90;;;;;;4344099;33;20216;-64
2021/08/07 12:10:48;;;;;;;5.33;1.57;;;21.50;99.90;;;;;;4344225;33;20179;-64
2021/08/07 12:13:26;;;;;;;2.20;1.10;;;21.60;99.90;;;;;;4345311;33;20507;-66
2021/08/07 12:15:55;;;;;;;6.03;1.33;;;21.90;99.90;;;;;;4343809;33;20610;-62
2021/08/07 12:18:22;;;;;;;3.60;1.23;;;22.10;99.90;;;;;;4353712;32;20610;-64
2021/08/07 12:20:51;;;;;;;9.50;1.80;;;22.40;99.90;;;;;;4405758;32;20198;-65
2021/08/07 12:23:18;;;;;;;3.87;1.60;;;22.70;99.90;;;;;;4405758;32;20207;-64
2021/08/07 12:25:44;;;;;;;3.10;1.10;;;22.50;99.90;;;;;;4405706;32;20163;-62
2021/08/07 12:28:15;;;;;;;2.47;1.20;;;22.40;99.90;;;;;;4405413;32;20159;-64
2021/08/07 12:30:54;;;;;;;4.90;1.40;;;22.50;99.90;;;;;;4405575;32;20151;-62
2021/08/07 12:33:23;;;;;;;4.60;1.63;;;22.40;99.90;;;;;;4405555;32;20207;-62
2021/08/07 12:35:53;;;;;;;3.47;1.20;;;22.30;99.90;;;;;;4405202;32;20151;-62
2021/08/07 12:38:22;;;;;;;5.13;1.43;;;22.60;99.90;;;;;;4405332;32;20147;-64
2021/08/07 12:40:51;;;;;;;5.07;1.20;;;22.70;99.90;;;;;;4406822;32;20155;-64
2021/08/07 12:43:18;;;;;;;2.37;1.23;;;22.60;99.00;;;;;;4405519;32;20191;-63
2021/08/07 12:45:45;;;;;;;2.77;1.00;;;22.60;99.30;;;;;;4405415;32;20168;-63
2021/08/07 12:48:12;;;;;;;2.13;1.20;;;22.70;99.70;;;;;;4405488;32;20199;-65
2021/08/07 12:50:39;;;;;;;3.03;1.30;;;22.70;98.80;;;;;;4405254;32;20152;-64
2021/08/07 12:53:07;;;;;;;2.33;0.83;;;22.60;98.90;;;;;;4405412;32;20156;-63
2021/08/07 12:55:49;;;;;;;5.37;1.20;;;22.70;98.60;;;;;;4405825;32;20157;-66
2021/08/07 12:58:18;;;;;;;3.43;1.10;;;22.70;98.50;;;;;;4405251;32;20190;-63
2021/08/07 13:00:46;;;;;;;4.33;1.20;;;22.70;98.10;;;;;;4405303;32;20151;-63
2021/08/07 13:03:12;;;;;;;3.60;1.40;;;22.70;97.50;;;;;;4406392;32;20155;-63